createdAt,value
2018-03-15T00:01:43.096Z,60.30
2018-03-15T00:04:15.086Z,60.60
2018-03-15T00:06:50.390Z,61.10
2018-03-15T00:09:25.026Z,60.70
2018-03-15T00:11:57.726Z,60.70
2018-03-15T00:14:43.176Z,60.40
2018-03-15T00:17:17.597Z,60.40
2018-03-15T00:19:52.456Z,60.80
2018-03-15T00:22:23.986Z,60.60
2018-03-15T00:25:00.137Z,60.60
2018-03-15T00:27:34.055Z,60.20
2018-03-15T00:30:06.385Z,59.80
2018-03-15T00:32:38.887Z,59.70
2018-03-15T00:35:17.505Z,59.70
2018-03-15T00:37:51.316Z,59.50
2018-03-15T00:40:25.317Z,59.20
2018-03-15T00:42:57.695Z,58.60
2018-03-15T00:45:31.805Z,58.60
2018-03-15T00:48:07.046Z,58.40
2018-03-15T00:50:39.115Z,58.20
2018-03-15T00:53:15.265Z,59.60
2018-03-15T00:55:48.256Z,60.40
2018-03-15T00:58:22.576Z,61.20
2018-03-15T01:00:54.946Z,59.70
2018-03-15T01:03:26.805Z,59.70
2018-03-15T01:06:00.705Z,59.30
2018-03-15T01:08:32.585Z,60.00
2018-03-15T01:11:04.644Z,60.00
2018-03-15T01:13:41.926Z,59.30
2018-03-15T01:16:13.826Z,59.20
2018-03-15T01:18:46.046Z,59.10
2018-03-15T01:21:17.295Z,59.10
2018-03-15T01:23:49.155Z,59.20
2018-03-15T01:26:19.986Z,59.30
2018-03-15T01:28:51.535Z,59.30
2018-03-15T01:31:29.945Z,59.00
2018-03-15T01:34:03.755Z,59.00
2018-03-15T01:36:44.946Z,59.00
2018-03-15T01:39:16.374Z,59.60
2018-03-15T01:41:48.665Z,58.90
2018-03-15T01:44:20.656Z,58.70
2018-03-15T01:46:52.575Z,58.70
2018-03-15T01:49:27.006Z,58.60
2018-03-15T01:51:59.375Z,58.50
2018-03-15T01:54:32.045Z,58.20
2018-03-15T01:57:05.347Z,58.20
2018-03-15T01:59:37.115Z,58.30
2018-03-15T02:02:12.428Z,58.00
2018-03-15T02:04:53.725Z,57.70
2018-03-15T02:07:25.786Z,57.60
2018-03-15T02:10:02.867Z,57.50
2018-03-15T02:12:37.216Z,57.70
2018-03-15T02:15:09.457Z,57.70
2018-03-15T02:17:40.935Z,57.80
2018-03-15T02:20:11.855Z,57.80
2018-03-15T02:22:46.875Z,57.80
2018-03-15T02:25:20.575Z,57.80
2018-03-15T02:27:55.366Z,57.80
2018-03-15T02:30:34.726Z,57.70
2018-03-15T02:33:15.307Z,57.60
2018-03-15T02:35:48.095Z,57.70
2018-03-15T02:38:22.816Z,57.70
2018-03-15T02:41:04.385Z,57.80
2018-03-15T02:43:35.746Z,57.90
2018-03-15T02:46:16.356Z,57.60
2018-03-15T02:48:48.486Z,57.50
2018-03-15T02:51:19.928Z,58.10
2018-03-15T02:54:00.016Z,57.80
2018-03-15T02:56:34.097Z,57.90
2018-03-15T02:59:09.536Z,57.80
2018-03-15T03:01:50.940Z,58.00
2018-03-15T03:04:25.335Z,57.80
2018-03-15T03:07:03.386Z,57.70
2018-03-15T03:09:36.735Z,57.60
2018-03-15T03:12:08.905Z,57.70
2018-03-15T03:14:44.137Z,57.80
2018-03-15T03:17:14.976Z,57.70
2018-03-15T03:19:49.316Z,57.80
2018-03-15T03:22:21.447Z,57.90
2018-03-15T03:24:52.907Z,58.10
2018-03-15T03:27:26.436Z,58.10
2018-03-15T03:30:10.336Z,58.20
2018-03-15T03:32:42.006Z,58.10
2018-03-15T03:35:16.745Z,58.20
2018-03-15T03:37:57.366Z,58.40
2018-03-15T03:40:29.975Z,58.40
2018-03-15T03:43:03.071Z,58.50
2018-03-15T03:45:35.411Z,58.40
2018-03-15T03:48:06.066Z,58.50
2018-03-15T03:50:37.106Z,58.40
2018-03-15T03:53:08.964Z,58.50
2018-03-15T03:55:41.035Z,58.50
2018-03-15T03:58:13.305Z,58.40
2018-03-15T04:00:44.895Z,58.60
2018-03-15T04:03:16.605Z,58.80
2018-03-15T04:05:52.155Z,58.70
2018-03-15T04:08:28.205Z,58.70
2018-03-15T04:10:59.765Z,58.80
2018-03-15T04:13:35.006Z,58.80
2018-03-15T04:16:05.945Z,58.90
2018-03-15T04:18:39.935Z,59.00
2018-03-15T04:21:14.055Z,59.20
2018-03-15T04:23:46.125Z,59.80
2018-03-15T04:26:22.075Z,59.40
2018-03-15T04:28:54.407Z,59.50
2018-03-15T04:31:29.276Z,59.50
2018-03-15T04:34:02.476Z,59.50
2018-03-15T04:36:34.026Z,59.40
2018-03-15T04:39:07.055Z,59.30
2018-03-15T04:41:42.425Z,59.40
2018-03-15T04:44:18.105Z,59.50
2018-03-15T04:46:52.626Z,59.40
2018-03-15T04:49:24.415Z,59.40
2018-03-15T04:51:56.955Z,59.50
2018-03-15T04:54:28.535Z,59.50
2018-03-15T04:57:03.746Z,59.70
2018-03-15T04:59:35.706Z,59.90
2018-03-15T05:02:09.506Z,59.70
2018-03-15T05:04:45.365Z,59.70
2018-03-15T05:07:24.486Z,59.90
2018-03-15T05:09:59.025Z,60.40
2018-03-15T05:12:35.186Z,60.40
2018-03-15T05:15:07.346Z,60.50
2018-03-15T05:17:42.076Z,60.50
2018-03-15T05:20:13.925Z,60.30
2018-03-15T05:22:46.094Z,61.10
2018-03-15T05:25:18.811Z,60.70
2018-03-15T05:27:50.326Z,61.00
2018-03-15T05:30:22.116Z,60.60
2018-03-15T05:32:54.554Z,60.40
2018-03-15T05:35:26.616Z,60.50
2018-03-15T05:38:07.085Z,61.10
2018-03-15T05:40:39.055Z,61.10
2018-03-15T05:43:12.786Z,60.60
2018-03-15T05:45:44.616Z,60.80
2018-03-15T05:48:18.385Z,61.60
2018-03-15T05:50:50.748Z,62.10
2018-03-15T05:53:24.088Z,61.80
2018-03-15T05:55:58.506Z,61.80
2018-03-15T05:58:33.946Z,62.90
2018-03-15T06:01:05.497Z,61.60
2018-03-15T06:03:37.855Z,62.20
2018-03-15T06:06:09.826Z,61.60
2018-03-15T06:08:43.225Z,61.50
2018-03-15T06:11:14.675Z,62.30
2018-03-15T06:13:46.228Z,62.50
2018-03-15T06:16:16.956Z,61.90
2018-03-15T06:18:48.514Z,62.40
2018-03-15T06:21:22.724Z,61.70
2018-03-15T06:23:55.196Z,61.80
2018-03-15T06:26:29.315Z,62.80
2018-03-15T06:29:01.195Z,62.10
2018-03-15T06:31:39.584Z,61.50
2018-03-15T06:34:13.946Z,61.20
2018-03-15T06:36:48.936Z,60.80
2018-03-15T06:39:23.855Z,60.70
2018-03-15T06:41:55.939Z,61.20
2018-03-15T06:44:28.505Z,61.60
2018-03-15T06:47:00.168Z,61.60
2018-03-15T06:49:40.346Z,61.00
2018-03-15T06:52:13.041Z,60.90
2018-03-15T06:54:46.396Z,61.00
2018-03-15T06:57:17.056Z,61.10
2018-03-15T06:59:52.056Z,61.10
2018-03-15T07:02:27.186Z,60.40
2018-03-15T07:05:01.536Z,60.30
2018-03-15T07:07:33.675Z,60.00
2018-03-15T07:10:06.052Z,59.10
2018-03-15T07:12:39.036Z,57.60
2018-03-15T07:15:14.265Z,57.50
2018-03-15T07:17:46.326Z,57.30
2018-03-15T07:20:24.398Z,57.50
2018-03-15T07:23:01.525Z,58.20
2018-03-15T07:25:33.174Z,57.60
2018-03-15T07:28:04.316Z,57.30
2018-03-15T07:30:37.095Z,56.70
2018-03-15T07:33:08.266Z,57.00
2018-03-15T07:35:43.997Z,57.00
2018-03-15T07:38:20.148Z,56.10
2018-03-15T07:40:59.397Z,56.20
2018-03-15T07:43:38.514Z,56.20
2018-03-15T07:46:09.794Z,56.20
2018-03-15T07:48:44.163Z,56.10
2018-03-15T07:51:16.234Z,60.50
2018-03-15T07:53:46.792Z,60.50
2018-03-15T07:56:18.712Z,53.60
2018-03-15T07:58:49.853Z,52.00
2018-03-15T08:01:22.348Z,52.40
2018-03-15T08:03:54.511Z,52.60
2018-03-15T08:06:26.682Z,53.10
2018-03-15T08:08:58.841Z,53.10
2018-03-15T08:11:29.421Z,53.10
2018-03-15T08:14:01.634Z,54.90
2018-03-15T08:16:34.535Z,54.70
2018-03-15T08:19:06.397Z,55.70
2018-03-15T08:21:37.323Z,54.90
2018-03-15T08:24:09.905Z,55.00
2018-03-15T08:26:41.253Z,55.20
2018-03-15T08:29:18.232Z,55.20
2018-03-15T08:31:47.629Z,55.20
2018-03-15T08:34:19.314Z,55.50
2018-03-15T08:36:50.424Z,54.70
2018-03-15T08:39:22.372Z,54.40
2018-03-15T08:41:53.795Z,54.30
2018-03-15T08:44:26.614Z,54.40
2018-03-15T08:47:04.355Z,55.00
2018-03-15T08:49:39.755Z,54.30
2018-03-15T08:52:12.064Z,53.50
2018-03-15T08:54:46.409Z,53.80
2018-03-15T08:57:18.139Z,54.30
2018-03-15T08:59:50.208Z,53.60
2018-03-15T09:02:24.707Z,53.70
2018-03-15T09:04:59.993Z,53.10
2018-03-15T09:07:34.076Z,53.10
2018-03-15T09:10:05.426Z,53.60
2018-03-15T09:12:38.280Z,53.10
2018-03-15T09:15:13.646Z,53.30
2018-03-15T09:17:50.727Z,53.00
2018-03-15T09:20:22.077Z,52.60
2018-03-15T09:22:53.695Z,52.60
2018-03-15T09:25:24.727Z,52.80
2018-03-15T09:27:57.310Z,52.40
2018-03-15T09:30:34.706Z,52.10
2018-03-15T09:33:06.145Z,52.30
2018-03-15T09:35:38.517Z,52.00
2018-03-15T09:38:16.106Z,51.60
2018-03-15T09:40:49.214Z,51.10
2018-03-15T09:43:23.369Z,50.90
2018-03-15T09:45:56.397Z,51.40
2018-03-15T09:48:28.409Z,51.50
2018-03-15T09:51:00.985Z,52.10
2018-03-15T09:53:33.255Z,51.30
2018-03-15T09:56:07.416Z,52.10
2018-03-15T09:58:39.695Z,50.80
2018-03-15T10:01:14.655Z,50.80
2018-03-15T10:03:46.685Z,50.80
2018-03-15T10:06:18.076Z,50.10
2018-03-15T10:08:51.945Z,51.00
2018-03-15T10:11:22.456Z,51.00
2018-03-15T10:13:57.105Z,49.60
2018-03-15T10:16:28.647Z,50.10
2018-03-15T10:19:03.267Z,49.10
2018-03-15T10:21:35.275Z,49.20
2018-03-15T10:24:07.297Z,49.20
2018-03-15T10:26:38.274Z,49.00
2018-03-15T10:29:11.636Z,48.80
2018-03-15T10:31:42.875Z,48.90
2018-03-15T10:34:15.818Z,48.60
2018-03-15T10:36:47.345Z,48.40
2018-03-15T10:39:18.675Z,48.20
2018-03-15T10:41:50.824Z,48.50
2018-03-15T10:44:22.445Z,50.10
2018-03-15T10:46:55.305Z,51.00
2018-03-15T10:49:26.822Z,51.00
2018-03-15T10:51:59.086Z,51.20
2018-03-15T10:54:31.436Z,51.80
2018-03-15T10:57:02.715Z,51.40
2018-03-15T10:59:34.596Z,51.30
2018-03-15T11:02:06.923Z,50.90
2018-03-15T11:04:44.756Z,50.40
2018-03-15T11:07:21.297Z,50.70
2018-03-15T11:09:54.286Z,50.60
2018-03-15T11:12:26.654Z,51.50
2018-03-15T11:14:58.717Z,51.60
2018-03-15T11:17:30.006Z,51.70
2018-03-15T11:20:01.736Z,51.30
2018-03-15T11:22:33.585Z,51.60
2018-03-15T11:25:04.926Z,51.70
2018-03-15T11:27:40.876Z,51.30
2018-03-15T11:30:12.650Z,51.50
2018-03-15T11:32:45.016Z,51.90
2018-03-15T11:35:17.276Z,51.60
2018-03-15T11:37:49.085Z,51.10
2018-03-15T11:40:21.415Z,51.80
2018-03-15T11:42:52.768Z,52.00
2018-03-15T11:45:24.625Z,52.10
2018-03-15T11:47:56.786Z,52.60
2018-03-15T11:50:29.556Z,52.70
2018-03-15T11:53:05.225Z,53.00
2018-03-15T11:55:49.546Z,53.00
2018-03-15T11:58:22.245Z,52.90
2018-03-15T12:00:53.807Z,53.10
2018-03-15T12:03:25.975Z,52.50
2018-03-15T12:06:00.805Z,52.30
2018-03-15T12:08:33.877Z,52.60
2018-03-15T12:11:11.896Z,52.80
2018-03-15T12:13:44.095Z,53.40
2018-03-15T12:16:16.837Z,53.40
2018-03-15T12:18:58.446Z,52.70
2018-03-15T12:21:33.655Z,52.70
2018-03-15T12:24:07.677Z,52.10
2018-03-15T12:26:38.754Z,52.50
2018-03-15T12:29:10.575Z,52.30
2018-03-15T12:31:50.436Z,51.60
2018-03-15T12:34:23.625Z,51.60
2018-03-15T12:36:56.086Z,52.10
2018-03-15T12:39:28.167Z,52.20
2018-03-15T12:42:02.456Z,52.20
2018-03-15T12:44:34.225Z,52.40
2018-03-15T12:47:05.615Z,52.40
2018-03-15T12:49:37.455Z,52.00
2018-03-15T12:52:09.807Z,52.20
2018-03-15T12:54:45.767Z,52.00
2018-03-15T12:57:22.382Z,52.30
2018-03-15T12:59:55.414Z,52.20
2018-03-15T13:02:30.775Z,52.30
2018-03-15T13:05:08.866Z,52.50
2018-03-15T13:07:42.775Z,53.50
2018-03-15T13:10:21.204Z,52.80
2018-03-15T13:12:53.856Z,52.90
2018-03-15T13:15:24.946Z,53.80
2018-03-15T13:17:57.278Z,53.90
2018-03-15T13:20:29.125Z,53.60
2018-03-15T13:23:11.050Z,53.40
2018-03-15T13:25:50.061Z,53.20
2018-03-15T13:28:23.545Z,53.90
2018-03-15T13:30:58.387Z,53.50
2018-03-15T13:33:35.576Z,53.80
2018-03-15T13:36:11.635Z,53.50
2018-03-15T13:38:43.805Z,53.50
2018-03-15T13:41:15.074Z,53.50
2018-03-15T13:43:47.801Z,53.40
2018-03-15T13:46:19.214Z,53.30
2018-03-15T13:48:55.635Z,53.40
2018-03-15T13:51:26.915Z,53.10
2018-03-15T13:53:59.074Z,53.70
2018-03-15T13:56:30.805Z,54.10
2018-03-15T13:59:05.015Z,54.20
2018-03-15T14:01:36.676Z,54.10
2018-03-15T14:04:09.340Z,54.10
2018-03-15T14:06:41.626Z,53.50
2018-03-15T14:09:16.455Z,53.70
2018-03-15T14:11:48.855Z,53.80
2018-03-15T14:14:22.825Z,53.50
2018-03-15T14:16:54.624Z,53.50
2018-03-15T14:19:26.243Z,53.30
2018-03-15T14:21:58.085Z,53.20
2018-03-15T14:24:33.956Z,53.00
2018-03-15T14:27:09.606Z,52.90
2018-03-15T14:29:42.688Z,52.60
2018-03-15T14:32:13.800Z,52.40
2018-03-15T14:34:46.036Z,52.40
2018-03-15T14:37:18.185Z,51.90
2018-03-15T14:39:51.916Z,52.30
2018-03-15T14:42:31.945Z,52.30
2018-03-15T14:45:08.296Z,51.80
2018-03-15T14:47:47.935Z,51.80
2018-03-15T14:50:20.613Z,51.70
2018-03-15T14:52:51.705Z,51.80
2018-03-15T14:55:21.976Z,51.80
2018-03-15T14:57:55.106Z,51.90
2018-03-15T15:00:26.956Z,51.70
2018-03-15T15:02:57.755Z,51.80
2018-03-15T15:05:33.915Z,51.70
2018-03-15T15:08:06.935Z,51.60
2018-03-15T15:10:37.975Z,51.60
2018-03-15T15:13:09.000Z,51.20
2018-03-15T15:15:42.166Z,51.90
2018-03-15T15:18:14.904Z,51.40
2018-03-15T15:20:47.188Z,51.30
2018-03-15T15:23:19.425Z,51.30
2018-03-15T15:25:51.656Z,51.40
2018-03-15T15:28:32.126Z,51.80
2018-03-15T15:31:08.295Z,51.80
2018-03-15T15:33:39.627Z,52.40
2018-03-15T15:36:17.475Z,52.10
2018-03-15T15:38:55.637Z,52.00
2018-03-15T15:41:28.213Z,52.30
2018-03-15T15:43:59.617Z,52.40
2018-03-15T15:46:35.005Z,52.40
2018-03-15T15:49:05.526Z,52.40
2018-03-15T15:51:38.625Z,52.10
2018-03-15T15:54:10.285Z,53.00
2018-03-15T15:56:46.025Z,52.80
2018-03-15T15:59:23.106Z,53.40
2018-03-15T16:01:56.406Z,53.30
2018-03-15T16:04:28.875Z,53.20
2018-03-15T16:07:00.486Z,53.50
2018-03-15T16:09:33.848Z,53.40
2018-03-15T16:12:05.915Z,53.40
2018-03-15T16:14:41.834Z,53.60
2018-03-15T16:17:13.905Z,53.40
2018-03-15T16:19:49.355Z,52.70
2018-03-15T16:22:21.346Z,52.70
2018-03-15T16:24:59.326Z,52.00
2018-03-15T16:27:31.496Z,51.70
2018-03-15T16:30:02.516Z,49.60
2018-03-15T16:32:35.715Z,50.00
2018-03-15T16:35:10.336Z,49.50
2018-03-15T16:37:42.496Z,49.40
2018-03-15T16:40:15.286Z,45.70
2018-03-15T16:42:46.667Z,44.30
2018-03-15T16:45:19.494Z,44.30
2018-03-15T16:47:57.215Z,42.40
2018-03-15T16:50:30.914Z,43.20
2018-03-15T16:53:01.744Z,43.20
2018-03-15T16:55:34.035Z,43.10
2018-03-15T16:58:06.595Z,42.80
2018-03-15T17:00:38.466Z,41.70
2018-03-15T17:03:09.594Z,41.70
2018-03-15T17:05:47.943Z,43.60
2018-03-15T17:08:24.068Z,43.50
2018-03-15T17:11:00.425Z,46.00
2018-03-15T17:13:30.508Z,46.60
2018-03-15T17:16:02.245Z,47.40
2018-03-15T17:18:38.486Z,48.30
2018-03-15T17:21:14.036Z,49.40
2018-03-15T17:23:46.795Z,50.00
2018-03-15T17:26:19.788Z,50.30
2018-03-15T17:28:55.026Z,50.00
2018-03-15T17:31:30.575Z,50.60
2018-03-15T17:34:06.116Z,51.00
2018-03-15T17:36:38.017Z,51.50
2018-03-15T17:39:09.775Z,51.40
2018-03-15T17:41:44.055Z,50.80
2018-03-15T17:44:16.945Z,51.60
2018-03-15T17:46:47.875Z,51.90
2018-03-15T17:49:26.285Z,51.50
2018-03-15T17:52:00.905Z,51.50
2018-03-15T17:54:35.025Z,52.40
2018-03-15T17:57:06.767Z,53.90
2018-03-15T17:59:38.548Z,70.90
2018-03-15T18:02:11.448Z,54.10
2018-03-15T18:04:43.365Z,53.70
2018-03-15T18:07:15.903Z,53.10
2018-03-15T18:09:50.985Z,52.30
2018-03-15T18:12:21.816Z,52.80
2018-03-15T18:14:55.856Z,51.40
2018-03-15T18:17:27.125Z,52.60
2018-03-15T18:19:59.485Z,53.30
2018-03-15T18:22:31.225Z,50.80
2018-03-15T18:25:05.316Z,48.40
2018-03-15T18:27:39.145Z,65.40
2018-03-15T18:30:13.137Z,64.70
2018-03-15T18:32:45.106Z,64.70
2018-03-15T18:35:17.066Z,64.10
2018-03-15T18:37:48.300Z,64.00
2018-03-15T18:40:22.256Z,64.80
2018-03-15T18:42:55.589Z,64.60
2018-03-15T18:45:26.735Z,64.50
2018-03-15T18:47:59.135Z,64.20
2018-03-15T18:50:31.939Z,64.50
2018-03-15T18:55:35.415Z,65.00
2018-03-15T18:58:08.585Z,65.00
2018-03-15T19:00:40.085Z,65.00
2018-03-15T19:03:12.255Z,66.00
2018-03-15T19:05:44.416Z,65.60
2018-03-15T19:08:15.026Z,65.70
2018-03-15T19:10:46.886Z,64.80
2018-03-15T19:13:19.496Z,65.10
2018-03-15T19:15:51.768Z,65.00
2018-03-15T19:18:24.236Z,65.20
2018-03-15T19:20:58.145Z,65.50
2018-03-15T19:23:30.164Z,64.90
2018-03-15T19:26:01.014Z,65.30
2018-03-15T19:28:33.475Z,65.50
2018-03-15T19:31:05.528Z,65.30
2018-03-15T19:33:36.285Z,65.20
2018-03-15T19:36:07.727Z,65.40
2018-03-15T19:38:39.185Z,65.30
2018-03-15T19:41:12.896Z,65.70
2018-03-15T19:43:43.915Z,66.40
2018-03-15T19:46:15.056Z,66.00
2018-03-15T19:48:47.366Z,66.20
2018-03-15T19:51:19.225Z,66.40
2018-03-15T19:53:50.735Z,66.40
2018-03-15T19:56:23.005Z,66.70
2018-03-15T19:58:54.805Z,67.30
2018-03-15T20:01:30.755Z,67.10
2018-03-15T20:04:02.375Z,67.30
2018-03-15T20:06:34.176Z,68.00
2018-03-15T20:09:06.136Z,69.70
2018-03-15T20:11:45.135Z,70.10
2018-03-15T20:14:19.235Z,70.10
2018-03-15T20:16:51.705Z,70.70
2018-03-15T20:19:23.617Z,71.60
2018-03-15T20:21:55.775Z,71.70
2018-03-15T20:24:32.149Z,72.00
2018-03-15T20:27:03.757Z,71.90
2018-03-15T20:29:34.695Z,71.60
2018-03-15T20:32:06.526Z,71.40
2018-03-15T20:34:38.307Z,71.00
2018-03-15T20:37:09.655Z,71.30
2018-03-15T20:39:47.056Z,72.00
2018-03-15T20:42:17.205Z,72.20
2018-03-15T20:44:50.566Z,72.20
2018-03-15T20:47:29.178Z,72.50
2018-03-15T20:50:03.945Z,72.40
2018-03-15T20:52:43.536Z,73.00
2018-03-15T20:55:15.095Z,72.90
2018-03-15T20:57:48.015Z,72.90
2018-03-15T21:00:19.846Z,73.30
2018-03-15T21:02:51.857Z,72.70
2018-03-15T21:05:23.453Z,73.00
2018-03-15T21:07:58.525Z,73.10
2018-03-15T21:10:33.116Z,72.50
2018-03-15T21:13:04.366Z,73.40
2018-03-15T21:15:34.895Z,72.80
2018-03-15T21:18:06.076Z,72.20
2018-03-15T21:20:38.347Z,72.70
2018-03-15T21:23:12.825Z,72.70
2018-03-15T21:25:45.416Z,72.20
2018-03-15T21:28:16.677Z,71.90
2018-03-15T21:30:48.596Z,72.50
2018-03-15T21:33:20.156Z,72.70
2018-03-15T21:35:56.216Z,73.10
2018-03-15T21:38:27.159Z,73.70
2018-03-15T21:40:59.425Z,74.10
2018-03-15T21:43:36.207Z,74.90
2018-03-15T21:46:10.586Z,74.20
2018-03-15T21:48:45.755Z,74.40
2018-03-15T21:51:18.746Z,73.50
2018-03-15T21:53:49.985Z,74.00
2018-03-15T21:56:21.676Z,74.50
2018-03-15T21:58:53.196Z,74.30
2018-03-15T22:01:25.055Z,73.90
2018-03-15T22:03:57.875Z,73.50
2018-03-15T22:06:30.246Z,74.10
2018-03-15T22:09:02.069Z,73.70
2018-03-15T22:11:37.547Z,74.20
2018-03-15T22:14:14.425Z,73.70
2018-03-15T22:16:45.228Z,74.00
2018-03-15T22:19:17.336Z,74.30
2018-03-15T22:21:51.717Z,73.80
2018-03-15T22:24:29.508Z,73.20
2018-03-15T22:27:01.267Z,72.80
2018-03-15T22:29:32.920Z,73.30
2018-03-15T22:32:06.206Z,73.10
2018-03-15T22:34:38.675Z,73.40
2018-03-15T22:37:11.472Z,72.70
2018-03-15T22:39:45.067Z,73.20
2018-03-15T22:42:16.506Z,72.50
2018-03-15T22:44:47.035Z,72.60
2018-03-15T22:47:21.275Z,73.30
2018-03-15T22:49:54.856Z,73.00
2018-03-15T22:52:30.844Z,73.00
2018-03-15T22:55:02.293Z,73.50
2018-03-15T22:57:36.496Z,73.00
2018-03-15T23:00:08.948Z,73.10
2018-03-15T23:02:40.246Z,73.30
2018-03-15T23:05:12.875Z,73.20
2018-03-15T23:07:46.066Z,73.40
2018-03-15T23:10:19.566Z,53.20
2018-03-15T23:12:52.135Z,53.70
2018-03-15T23:15:24.315Z,53.80
2018-03-15T23:17:55.664Z,53.70
2018-03-15T23:20:27.110Z,53.30
2018-03-15T23:23:04.606Z,74.70
2018-03-15T23:25:35.743Z,75.90
2018-03-15T23:28:07.095Z,75.80
2018-03-15T23:30:40.686Z,75.80
2018-03-15T23:33:11.615Z,76.60
2018-03-15T23:35:46.079Z,77.90
2018-03-15T23:38:17.495Z,77.70
2018-03-15T23:40:51.845Z,77.80
2018-03-15T23:43:23.155Z,77.70
2018-03-15T23:45:54.575Z,77.20
2018-03-15T23:48:26.975Z,77.70
2018-03-15T23:51:00.005Z,76.70
2018-03-15T23:53:31.316Z,77.20
2018-03-15T23:56:05.736Z,78.10
2018-03-15T23:58:37.536Z,81.80
